Time;durP1;ratioP1;P1;durP2;ratioP2;P2;SDS_P1;SDS_P2;PMS_P1;PMS_P2;Temp;Humidity;BMP_temperature;BMP_pressure;BME280_temperature;BME280_humidity;BME280_pressure;Samples;Min_cycle;Max_cycle;Signal;HPM_P1;HPM_P2
2022/07/27 00:01:15;;;;;;;2.20;1.20;;;24.90;54.80;;;;;;5120434;27;20173;-89
2022/07/27 00:03:42;;;;;;;2.83;1.60;;;24.90;54.90;;;;;;5120394;27;20205;-89
2022/07/27 00:06:08;;;;;;;1.37;1.10;;;24.90;54.40;;;;;;5120461;27;20168;-89
2022/07/27 00:08:34;;;;;;;2.80;1.33;;;24.90;54.80;;;;;;5119316;27;20229;-89
2022/07/27 00:11:00;;;;;;;1.80;1.30;;;24.80;54.70;;;;;;5120374;27;20415;-89
2022/07/27 00:13:25;;;;;;;2.23;1.20;;;24.80;54.30;;;;;;5138242;27;20169;-89
2022/07/27 00:15:51;;;;;;;3.07;1.30;;;24.80;54.70;;;;;;5119921;27;20173;-89
2022/07/27 00:18:17;;;;;;;2.63;1.33;;;24.80;55.30;;;;;;5120591;27;20546;-89
2022/07/27 00:20:43;;;;;;;1.53;1.20;;;24.70;54.60;;;;;;5120237;27;20174;-89
2022/07/27 00:23:09;;;;;;;2.20;1.20;;;24.70;54.90;;;;;;5137330;27;20662;-89
2022/07/27 00:25:35;;;;;;;2.17;1.10;;;24.70;54.60;;;;;;5118862;27;20237;-88
2022/07/27 00:28:01;;;;;;;2.17;1.30;;;24.60;54.90;;;;;;5119062;27;20169;-89
2022/07/27 00:30:27;;;;;;;2.00;1.30;;;24.60;54.80;;;;;;5137068;27;20236;-89
2022/07/27 00:32:53;;;;;;;3.07;1.30;;;24.60;55.00;;;;;;5117257;27;20198;-89
2022/07/27 00:35:19;;;;;;;1.93;1.30;;;24.60;55.00;;;;;;5116653;27;20269;-89
2022/07/27 00:37:45;;;;;;;1.50;1.20;;;24.60;54.80;;;;;;5117290;27;20207;-89
2022/07/27 00:40:11;;;;;;;1.77;1.10;;;24.60;55.10;;;;;;5118120;27;20208;-89
2022/07/27 00:42:37;;;;;;;2.10;1.20;;;24.50;55.00;;;;;;5136373;27;20201;-89
2022/07/27 00:45:04;;;;;;;1.87;1.00;;;24.50;54.80;;;;;;5119599;27;20256;-89
2022/07/27 00:47:30;;;;;;;3.67;1.40;;;24.50;54.90;;;;;;5118327;27;20267;-89
2022/07/27 00:49:57;;;;;;;1.77;1.10;;;24.50;54.90;;;;;;5117786;27;20476;-89
2022/07/27 00:52:23;;;;;;;1.67;1.20;;;24.50;55.10;;;;;;5117529;27;20517;-89
2022/07/27 00:54:50;;;;;;;1.60;1.10;;;24.50;55.00;;;;;;5118095;27;20173;-89
2022/07/27 00:57:16;;;;;;;1.20;1.10;;;24.40;54.90;;;;;;5119247;27;20176;-89
2022/07/27 00:59:44;;;;;;;2.03;1.20;;;24.40;54.90;;;;;;5119913;27;20180;-89
2022/07/27 01:02:10;;;;;;;1.20;1.10;;;24.40;55.20;;;;;;5119214;27;20288;-88
2022/07/27 01:04:35;;;;;;;2.80;1.30;;;24.40;55.20;;;;;;5119387;27;20201;-89
2022/07/27 01:07:03;;;;;;;2.57;1.30;;;24.40;55.00;;;;;;5118692;27;20231;-89
2022/07/27 01:12:16;;;;;;;1.30;1.20;;;24.30;55.20;;;;;;5137496;27;20179;-89
2022/07/27 01:14:42;;;;;;;2.90;1.30;;;24.30;55.30;;;;;;5119530;27;20169;-89
2022/07/27 01:17:08;;;;;;;1.80;1.13;;;24.30;55.20;;;;;;5347590;22;20224;-89
2022/07/27 01:19:34;;;;;;;1.70;1.10;;;24.30;55.30;;;;;;5116663;27;20519;-89
2022/07/27 01:22:10;;;;;;;1.27;1.10;;;24.30;55.50;;;;;;5119905;27;20175;-89
2022/07/27 01:24:37;;;;;;;1.73;1.20;;;24.30;55.30;;;;;;5119734;27;20200;-89
2022/07/27 01:27:04;;;;;;;1.20;1.10;;;24.20;55.50;;;;;;5119684;27;20179;-89
2022/07/27 01:29:31;;;;;;;1.30;1.20;;;24.20;55.40;;;;;;5119069;27;20172;-89
2022/07/27 01:31:57;;;;;;;1.17;1.07;;;24.20;55.40;;;;;;5119743;27;20176;-89
2022/07/27 01:34:23;;;;;;;2.03;1.30;;;24.20;55.20;;;;;;5119782;27;20759;-89
2022/07/27 01:36:49;;;;;;;1.63;1.30;;;24.10;55.30;;;;;;5120245;27;20197;-89
2022/07/27 01:39:16;;;;;;;1.53;1.10;;;24.10;55.50;;;;;;5119887;27;20276;-89
2022/07/27 01:41:42;;;;;;;1.93;1.27;;;24.10;55.50;;;;;;5119832;27;20176;-89
2022/07/27 01:44:08;;;;;;;2.40;1.50;;;24.00;55.10;;;;;;5119253;27;20208;-89
2022/07/27 01:46:34;;;;;;;1.57;1.20;;;23.90;55.50;;;;;;5119397;27;20283;-89
2022/07/27 01:49:00;;;;;;;2.37;1.17;;;23.80;55.50;;;;;;5137846;27;20247;-89
2022/07/27 01:51:26;;;;;;;1.33;1.20;;;23.70;55.70;;;;;;5119777;27;20233;-89
2022/07/27 01:53:52;;;;;;;2.20;1.13;;;23.70;56.00;;;;;;5120047;27;20177;-89
2022/07/27 01:56:18;;;;;;;2.03;1.10;;;23.80;56.20;;;;;;5120394;27;20191;-89
2022/07/27 01:58:44;;;;;;;3.50;1.40;;;23.80;56.10;;;;;;5117556;27;20184;-89
2022/07/27 02:01:09;;;;;;;1.33;1.20;;;23.80;55.60;;;;;;5116825;28;20502;-89
2022/07/27 02:03:36;;;;;;;2.73;1.40;;;23.80;56.10;;;;;;5116115;27;20234;-89
2022/07/27 02:06:03;;;;;;;1.40;1.20;;;23.70;56.10;;;;;;5118186;27;20200;-89
2022/07/27 02:08:29;;;;;;;1.30;1.17;;;23.80;56.00;;;;;;5135155;27;20255;-89
2022/07/27 02:13:43;;;;;;;1.37;1.20;;;23.80;55.80;;;;;;5136574;28;20180;-89
2022/07/27 02:16:09;;;;;;;2.87;1.40;;;23.80;56.00;;;;;;5118521;28;20280;-89
2022/07/27 02:18:35;;;;;;;3.23;1.37;;;23.80;55.80;;;;;;5119483;28;20234;-89
2022/07/27 02:21:00;;;;;;;2.77;1.53;;;23.70;55.40;;;;;;5117473;28;20181;-89
2022/07/27 02:23:27;;;;;;;1.80;1.40;;;23.60;55.70;;;;;;5118112;28;20219;-89
2022/07/27 02:25:52;;;;;;;2.17;1.37;;;23.50;56.00;;;;;;5118784;28;20169;-89
2022/07/27 02:28:18;;;;;;;4.03;1.40;;;23.40;56.00;;;;;;5118598;28;20173;-89
2022/07/27 02:30:44;;;;;;;1.87;1.20;;;23.40;56.20;;;;;;5120798;27;20480;-89
2022/07/27 02:33:10;;;;;;;1.97;1.30;;;23.30;56.30;;;;;;5123196;27;20255;-89
2022/07/27 02:35:35;;;;;;;1.53;1.27;;;23.20;56.50;;;;;;5122105;27;20209;-90
2022/07/27 02:38:01;;;;;;;2.70;1.40;;;23.10;56.60;;;;;;5121792;27;20243;-89
2022/07/27 02:40:27;;;;;;;3.53;1.47;;;23.00;56.90;;;;;;5140576;27;20172;-89
2022/07/27 02:42:53;;;;;;;4.60;1.73;;;23.00;57.10;;;;;;5122753;27;20272;-89
2022/07/27 02:45:18;;;;;;;2.17;1.27;;;22.90;57.10;;;;;;5140985;27;20262;-89
2022/07/27 02:47:44;;;;;;;3.87;1.33;;;22.80;57.40;;;;;;5139680;27;20249;-89
2022/07/27 02:50:10;;;;;;;1.93;1.03;;;22.80;57.60;;;;;;5122781;27;20523;-89
2022/07/27 02:52:37;;;;;;;1.60;1.23;;;22.80;58.00;;;;;;5141601;27;20304;-89
2022/07/27 02:55:04;;;;;;;4.33;1.40;;;22.90;57.50;;;;;;5140923;27;20544;-89
2022/07/27 02:57:30;;;;;;;2.17;1.40;;;22.80;57.30;;;;;;5122400;27;20446;-89
2022/07/27 02:59:56;;;;;;;2.20;1.30;;;22.70;57.70;;;;;;5139442;27;20171;-89
2022/07/27 03:02:22;;;;;;;2.90;1.40;;;22.70;57.80;;;;;;5122964;27;20610;-89
2022/07/27 03:04:48;;;;;;;1.77;1.23;;;22.60;58.00;;;;;;5122689;27;20188;-89
2022/07/27 03:07:13;;;;;;;3.23;1.20;;;22.50;57.90;;;;;;5122296;27;20174;-89
2022/07/27 03:09:39;;;;;;;3.00;1.40;;;22.50;58.20;;;;;;5122676;27;20163;-89
2022/07/27 03:12:05;;;;;;;1.87;1.30;;;22.40;58.60;;;;;;5121353;27;20199;-89
2022/07/27 03:14:31;;;;;;;3.90;1.47;;;22.40;58.50;;;;;;5121371;27;20183;-89
2022/07/27 03:16:57;;;;;;;2.37;1.23;;;22.40;58.60;;;;;;5121861;27;20271;-89
2022/07/27 03:19:22;;;;;;;1.93;1.33;;;22.30;58.70;;;;;;5122196;27;20187;-89
2022/07/27 03:21:48;;;;;;;1.37;1.27;;;22.30;58.80;;;;;;5121833;27;20458;-89
2022/07/27 03:24:14;;;;;;;3.33;1.33;;;22.30;59.10;;;;;;5121706;27;20485;-89
2022/07/27 03:26:40;;;;;;;2.57;1.40;;;22.20;58.70;;;;;;5138938;27;20161;-89
2022/07/27 03:29:06;;;;;;;4.50;1.60;;;22.20;58.70;;;;;;5121893;27;20177;-89
2022/07/27 03:31:31;;;;;;;4.93;1.70;;;22.10;58.80;;;;;;5122047;27;20183;-89
2022/07/27 03:33:57;;;;;;;2.23;1.23;;;22.10;59.00;;;;;;5139743;27;20162;-89
2022/07/27 03:36:23;;;;;;;1.93;1.40;;;22.00;58.90;;;;;;5121158;27;20551;-89
2022/07/27 03:38:48;;;;;;;2.00;1.30;;;22.00;59.20;;;;;;5139481;27;20167;-89
2022/07/27 03:41:14;;;;;;;1.63;1.27;;;22.00;59.30;;;;;;5121700;27;20174;-89
2022/07/27 03:43:40;;;;;;;2.83;1.20;;;22.00;59.50;;;;;;5121023;27;20490;-89
2022/07/27 03:46:06;;;;;;;2.13;1.33;;;21.90;59.60;;;;;;5121120;27;20560;-89
2022/07/27 03:48:31;;;;;;;2.20;1.40;;;21.90;59.80;;;;;;5121395;27;20174;-89
2022/07/27 03:50:57;;;;;;;2.30;1.20;;;21.90;59.80;;;;;;5120168;27;20194;-89
2022/07/27 03:53:23;;;;;;;2.90;1.40;;;21.90;60.00;;;;;;5120756;27;20181;-89
2022/07/27 03:55:49;;;;;;;2.00;1.17;;;21.90;60.40;;;;;;5120503;27;20206;-89
2022/07/27 03:58:16;;;;;;;2.37;1.20;;;22.00;60.20;;;;;;5121472;27;20180;-89
2022/07/27 04:00:43;;;;;;;2.47;1.37;;;22.10;59.50;;;;;;5121252;27;20177;-89
2022/07/27 04:03:08;;;;;;;2.30;1.20;;;22.10;59.40;;;;;;5120528;27;20203;-89
2022/07/27 04:05:36;;;;;;;1.77;1.20;;;22.10;59.40;;;;;;5120184;27;20339;-89
2022/07/27 04:08:01;;;;;;;2.73;1.40;;;22.10;59.30;;;;;;5121108;27;20181;-89
2022/07/27 04:10:27;;;;;;;2.90;1.40;;;22.10;59.10;;;;;;5121215;27;20171;-89
2022/07/27 04:12:53;;;;;;;1.40;1.23;;;22.00;59.40;;;;;;5120282;27;20178;-89
2022/07/27 04:15:21;;;;;;;1.20;1.10;;;21.90;59.40;;;;;;5119921;27;20171;-89
2022/07/27 04:17:47;;;;;;;2.50;1.20;;;21.90;59.90;;;;;;5120597;27;20197;-89
2022/07/27 04:20:13;;;;;;;2.23;1.20;;;21.90;59.80;;;;;;5120160;27;20307;-89
2022/07/27 04:22:39;;;;;;;1.67;1.20;;;21.80;59.80;;;;;;5120365;27;20210;-89
2022/07/27 04:25:06;;;;;;;2.50;1.30;;;21.80;60.00;;;;;;5119453;27;20188;-89
2022/07/27 04:27:31;;;;;;;1.83;1.10;;;21.80;60.20;;;;;;5119963;27;20258;-89
2022/07/27 04:29:57;;;;;;;1.93;1.30;;;21.80;60.50;;;;;;5120096;27;20203;-89
2022/07/27 04:32:23;;;;;;;1.77;1.30;;;21.80;61.10;;;;;;5119877;27;20178;-89
2022/07/27 04:34:49;;;;;;;1.00;1.00;;;22.00;59.90;;;;;;5120139;27;20257;-89
2022/07/27 04:37:14;;;;;;;3.23;1.30;;;22.00;59.50;;;;;;5119082;27;20170;-89
2022/07/27 04:39:40;;;;;;;2.30;1.20;;;22.10;59.20;;;;;;5119167;27;20212;-89
2022/07/27 04:42:07;;;;;;;5.47;1.87;;;22.20;59.00;;;;;;5137017;27;20163;-89
2022/07/27 04:44:33;;;;;;;2.20;1.10;;;22.30;58.80;;;;;;5119287;27;20496;-89
2022/07/27 04:46:58;;;;;;;1.83;1.20;;;22.30;58.80;;;;;;5137731;27;20569;-89
2022/07/27 04:49:24;;;;;;;2.57;1.33;;;22.30;58.70;;;;;;5119203;27;20177;-89
2022/07/27 04:51:50;;;;;;;1.50;1.10;;;22.40;58.60;;;;;;5118923;27;20185;-89
2022/07/27 04:54:16;;;;;;;1.70;1.20;;;22.40;58.80;;;;;;5119048;27;20202;-89
2022/07/27 04:56:41;;;;;;;2.00;1.20;;;22.40;58.30;;;;;;5118758;27;20590;-90
2022/07/27 04:59:08;;;;;;;3.20;1.53;;;22.40;58.50;;;;;;5136526;27;20451;-89
2022/07/27 05:01:33;;;;;;;2.07;1.17;;;22.40;58.40;;;;;;5119084;27;20180;-90
2022/07/27 05:03:59;;;;;;;2.03;1.37;;;22.30;58.50;;;;;;5118942;27;20199;-90
2022/07/27 05:06:25;;;;;;;2.60;1.50;;;22.40;58.60;;;;;;5119801;27;20168;-90
2022/07/27 05:08:50;;;;;;;3.50;1.70;;;22.40;58.80;;;;;;5136434;27;20170;-90
2022/07/27 05:11:16;;;;;;;3.17;1.53;;;22.40;58.80;;;;;;5118623;27;20168;-90
2022/07/27 05:13:42;;;;;;;4.40;1.73;;;22.40;58.70;;;;;;5116945;27;20171;-90
2022/07/27 05:16:09;;;;;;;3.17;1.77;;;22.40;58.50;;;;;;5117042;27;20458;-90
2022/07/27 05:18:38;;;;;;;3.57;1.97;;;22.50;58.60;;;;;;5118299;27;20187;-90
2022/07/27 05:21:05;;;;;;;5.70;2.00;;;22.50;58.20;;;;;;5118606;27;20230;-90
2022/07/27 05:23:31;;;;;;;4.53;2.10;;;22.60;58.20;;;;;;5116907;27;20588;-90
2022/07/27 05:25:57;;;;;;;2.67;1.90;;;22.60;58.10;;;;;;5116629;27;20373;-90
2022/07/27 05:28:23;;;;;;;2.87;1.90;;;22.70;57.80;;;;;;5135566;27;20209;-90
2022/07/27 05:30:49;;;;;;;4.70;1.70;;;22.70;57.80;;;;;;5117935;27;20203;-90
2022/07/27 05:33:14;;;;;;;5.27;1.87;;;22.90;57.40;;;;;;5115657;27;20171;-90
2022/07/27 05:35:41;;;;;;;2.73;1.80;;;23.00;57.20;;;;;;5116111;27;20171;-90
2022/07/27 05:38:06;;;;;;;4.83;1.90;;;23.10;57.40;;;;;;5115274;27;20333;-90
2022/07/27 05:40:32;;;;;;;2.57;1.83;;;23.20;56.90;;;;;;5115771;28;20182;-90
2022/07/27 05:42:58;;;;;;;3.90;2.07;;;23.30;56.90;;;;;;5115709;27;20407;-90
2022/07/27 05:45:24;;;;;;;3.47;2.17;;;23.40;56.80;;;;;;5114354;27;20260;-90
2022/07/27 05:47:53;;;;;;;3.30;2.00;;;23.50;57.10;;;;;;5114915;27;20180;-90
2022/07/27 05:50:19;;;;;;;2.27;1.43;;;23.60;57.40;;;;;;5115591;27;20282;-90
2022/07/27 05:52:45;;;;;;;3.00;1.83;;;23.70;55.80;;;;;;5116075;27;20177;-90
2022/07/27 05:55:11;;;;;;;4.67;2.33;;;23.80;55.80;;;;;;5116302;27;20549;-90
2022/07/27 05:57:39;;;;;;;4.13;2.30;;;23.90;56.50;;;;;;5115204;27;20215;-90
2022/07/27 06:00:06;;;;;;;1.83;1.50;;;24.00;55.50;;;;;;5114970;27;20172;-89
2022/07/27 06:02:32;;;;;;;2.07;1.67;;;24.10;54.90;;;;;;5115805;27;20200;-90
2022/07/27 06:04:58;;;;;;;1.77;1.50;;;24.40;54.30;;;;;;5115464;27;20184;-90
2022/07/27 06:10:10;;;;;;;1.60;1.43;;;24.60;53.30;;;;;;5134184;27;20212;-90
2022/07/27 06:12:43;;;;;;;5.23;1.97;;;24.80;53.10;;;;;;5115716;28;20177;-90
2022/07/27 06:15:12;;;;;;;4.87;1.87;;;24.90;53.90;;;;;;5115942;28;20233;-90
2022/07/27 06:17:39;;;;;;;2.63;2.10;;;25.10;53.90;;;;;;5116059;28;20197;-89
2022/07/27 06:20:07;;;;;;;2.87;2.00;;;25.10;53.10;;;;;;5115982;28;20268;-90
2022/07/27 06:22:44;;;;;;;1.70;1.40;;;25.20;53.00;;;;;;5116054;28;20193;-90
2022/07/27 06:25:09;;;;;;;2.60;1.70;;;25.40;52.30;;;;;;5115633;28;20165;-90
2022/07/27 06:27:36;;;;;;;2.60;1.70;;;25.50;51.90;;;;;;5115789;28;20170;-90
2022/07/27 06:30:03;;;;;;;2.00;1.43;;;25.70;51.60;;;;;;5134964;28;20202;-90
2022/07/27 06:32:29;;;;;;;1.40;1.30;;;25.90;51.30;;;;;;5117347;28;20452;-90
2022/07/27 06:34:54;;;;;;;2.40;1.40;;;26.10;51.10;;;;;;5114959;28;20577;-89
2022/07/27 06:37:20;;;;;;;2.30;1.40;;;26.20;50.90;;;;;;5114972;28;20170;-90
2022/07/27 06:39:46;;;;;;;2.10;1.40;;;26.40;50.70;;;;;;5116086;28;20216;-90
2022/07/27 06:42:14;;;;;;;2.10;1.50;;;26.50;50.40;;;;;;5132757;28;20428;-90
2022/07/27 06:44:40;;;;;;;2.30;1.30;;;26.70;50.20;;;;;;5115554;28;20161;-90
2022/07/27 06:47:06;;;;;;;2.03;1.40;;;26.90;50.10;;;;;;5114766;28;20166;-90
2022/07/27 06:49:32;;;;;;;1.83;1.50;;;27.20;49.70;;;;;;5132467;28;20157;-90
2022/07/27 06:51:58;;;;;;;1.90;1.50;;;27.30;49.60;;;;;;5114693;28;20265;-90
2022/07/27 06:54:23;;;;;;;1.40;1.30;;;27.40;49.10;;;;;;5114465;28;20433;-90
2022/07/27 06:56:49;;;;;;;2.93;1.30;;;27.60;49.20;;;;;;5114227;28;20174;-90
2022/07/27 06:59:15;;;;;;;1.80;1.30;;;27.80;49.00;;;;;;5114176;28;20468;-90
2022/07/27 07:01:42;;;;;;;2.67;1.43;;;28.00;48.50;;;;;;5132485;28;20170;-90
2022/07/27 07:04:08;;;;;;;1.53;1.30;;;27.80;48.00;;;;;;5114056;28;20282;-90
2022/07/27 07:06:34;;;;;;;4.20;1.50;;;27.70;48.50;;;;;;5114062;28;20269;-89
2022/07/27 07:09:00;;;;;;;3.30;1.43;;;27.60;47.50;;;;;;5132470;28;20185;-90
2022/07/27 07:11:26;;;;;;;2.53;1.10;;;28.90;47.60;;;;;;5114308;28;20205;-90
2022/07/27 07:13:52;;;;;;;1.27;1.10;;;29.80;46.60;;;;;;5115258;28;20437;-90
2022/07/27 07:16:18;;;;;;;3.10;1.30;;;30.40;46.10;;;;;;5116547;27;20178;-90
2022/07/27 07:18:44;;;;;;;2.40;1.30;;;30.90;45.20;;;;;;5118021;27;20453;-90
2022/07/27 07:21:10;;;;;;;1.50;1.30;;;31.30;45.20;;;;;;5116969;27;20177;-90
2022/07/27 07:23:36;;;;;;;2.03;1.33;;;31.70;44.80;;;;;;5117409;27;20234;-90
2022/07/27 07:26:02;;;;;;;1.90;1.40;;;31.90;44.60;;;;;;5118123;27;20223;-90
2022/07/27 07:28:28;;;;;;;1.30;1.20;;;32.30;44.30;;;;;;5117282;27;20427;-90
2022/07/27 07:30:53;;;;;;;3.00;1.30;;;32.60;44.00;;;;;;5119202;27;20165;-90
2022/07/27 07:33:19;;;;;;;3.73;1.40;;;32.80;43.70;;;;;;5118015;27;20166;-89
2022/07/27 07:35:45;;;;;;;1.33;1.23;;;32.70;42.20;;;;;;5117910;27;20170;-90
2022/07/27 07:38:11;;;;;;;2.33;1.23;;;32.80;42.80;;;;;;5117854;27;20173;-90
2022/07/27 07:40:37;;;;;;;1.97;1.10;;;33.10;42.90;;;;;;5119425;27;20272;-90
2022/07/27 07:43:04;;;;;;;3.67;1.40;;;32.70;42.90;;;;;;5117270;27;20586;-90
2022/07/27 07:45:33;;;;;;;1.77;1.30;;;31.40;43.50;;;;;;5118243;27;20181;-90
2022/07/27 07:47:58;;;;;;;2.60;1.57;;;31.10;44.30;;;;;;5117575;27;20169;-90
2022/07/27 07:50:24;;;;;;;1.17;1.10;;;32.10;43.20;;;;;;5117209;27;20342;-89
2022/07/27 07:52:51;;;;;;;2.30;1.27;;;33.00;42.80;;;;;;5117156;27;20589;-90
2022/07/27 07:55:22;;;;;;;3.00;1.10;;;33.50;42.10;;;;;;5134188;27;20220;-90
2022/07/27 07:57:48;;;;;;;1.50;1.10;;;33.00;42.60;;;;;;5116944;27;20165;-90
2022/07/27 08:00:14;;;;;;;2.40;1.40;;;33.60;42.20;;;;;;5115865;27;20207;-90
2022/07/27 08:02:52;;;;;;;1.88;1.30;;;34.10;42.10;;;;;;5114599;27;20209;-90
2022/07/27 08:05:19;;;;;;;1.55;1.10;;;34.40;41.80;;;;;;5117027;27;20193;-90
2022/07/27 08:07:45;;;;;;;1.10;1.00;;;34.60;41.00;;;;;;5117426;27;20176;-90
2022/07/27 08:10:12;;;;;;;2.05;1.10;;;33.10;41.90;;;;;;5115915;27;20174;-90
2022/07/27 08:12:42;;;;;;;1.10;1.00;;;33.10;42.60;;;;;;5114308;27;20272;-90
2022/07/27 08:15:09;;;;;;;1.60;1.30;;;34.00;42.10;;;;;;5116401;27;20285;-89
2022/07/27 08:17:35;;;;;;;3.08;1.58;;;34.60;41.90;;;;;;5134143;27;20182;-90
2022/07/27 08:20:01;;;;;;;1.50;1.30;;;35.10;41.10;;;;;;5116562;27;20219;-90
2022/07/27 08:22:27;;;;;;;1.45;1.15;;;34.90;40.70;;;;;;5116098;27;20185;-90
2022/07/27 08:24:52;;;;;;;1.30;1.20;;;33.40;41.50;;;;;;5116139;27;20238;-90
2022/07/27 08:27:18;;;;;;;2.75;1.30;;;32.70;42.30;;;;;;5115183;27;20317;-90
2022/07/27 08:29:44;;;;;;;1.75;1.20;;;33.30;42.50;;;;;;5115273;27;20563;-90
2022/07/27 08:32:10;;;;;;;2.75;1.20;;;34.20;41.80;;;;;;5115438;27;20170;-90
2022/07/27 08:34:36;;;;;;;2.03;1.35;;;34.80;40.90;;;;;;5114620;27;20184;-90
2022/07/27 08:37:01;;;;;;;1.70;1.25;;;35.30;40.90;;;;;;5134431;27;20436;-90
2022/07/27 08:39:27;;;;;;;1.40;1.25;;;35.50;40.60;;;;;;5114989;27;20173;-90
2022/07/27 08:41:54;;;;;;;2.35;1.38;;;35.30;40.30;;;;;;5114723;27;20464;-90
2022/07/27 08:44:23;;;;;;;1.52;1.20;;;33.50;41.20;;;;;;5115587;27;20216;-90
2022/07/27 08:46:50;;;;;;;1.35;1.17;;;32.20;42.20;;;;;;5114304;27;20256;-90
2022/07/27 08:49:19;;;;;;;1.95;1.40;;;31.60;42.90;;;;;;5134724;27;20166;-90
2022/07/27 08:51:45;;;;;;;1.77;1.40;;;32.10;42.70;;;;;;5134107;27;20166;-90
2022/07/27 08:54:12;;;;;;;2.13;1.30;;;33.60;42.40;;;;;;5117121;27;20181;-90
2022/07/27 08:56:37;;;;;;;1.35;1.25;;;34.00;41.50;;;;;;5117297;27;20181;-90
2022/07/27 08:59:03;;;;;;;1.42;1.20;;;34.80;41.30;;;;;;5115334;27;20466;-90
2022/07/27 09:01:34;;;;;;;1.52;1.38;;;35.20;41.00;;;;;;5134787;27;20157;-90
2022/07/27 09:04:01;;;;;;;1.70;1.23;;;35.50;40.70;;;;;;5134406;27;20211;-90
2022/07/27 09:06:49;;;;;;;1.65;1.30;;;35.70;40.60;;;;;;5115611;27;20276;-90
2022/07/27 09:09:19;;;;;;;2.47;1.33;;;35.90;40.30;;;;;;5114895;27;20165;-90
2022/07/27 09:12:09;;;;;;;1.40;1.30;;;36.20;40.20;;;;;;5115225;27;20166;-90
2022/07/27 09:14:37;;;;;;;1.92;1.30;;;36.30;40.10;;;;;;5114897;27;20166;-88
2022/07/27 09:17:24;;;;;;;2.03;1.15;;;35.70;40.00;;;;;;5114665;27;20177;-89
2022/07/27 09:20:02;;;;;;;1.25;1.15;;;34.60;40.20;;;;;;5130784;27;20237;-89
2022/07/27 09:22:46;;;;;;;1.85;1.20;;;33.20;41.50;;;;;;5113439;27;20216;-89
2022/07/27 09:25:15;;;;;;;1.40;1.20;;;32.00;40.90;;;;;;5115116;27;20165;-89
2022/07/27 09:27:43;;;;;;;1.40;1.20;;;31.30;42.70;;;;;;5132517;27;20175;-89
2022/07/27 09:30:15;;;;;;;2.35;1.33;;;30.90;42.70;;;;;;5132064;27;20169;-89
2022/07/27 09:33:02;;;;;;;1.55;1.13;;;30.60;43.40;;;;;;5133170;27;20177;-88
2022/07/27 09:35:32;;;;;;;2.25;1.20;;;30.20;43.50;;;;;;5113448;27;20546;-89
2022/07/27 09:38:18;;;;;;;1.88;1.20;;;30.00;43.40;;;;;;5113471;28;20474;-89
2022/07/27 09:40:45;;;;;;;2.10;1.20;;;29.60;43.40;;;;;;5114950;27;20197;-89
2022/07/27 09:43:12;;;;;;;1.33;1.00;;;29.40;42.90;;;;;;5113990;27;20205;-89
2022/07/27 09:45:43;;;;;;;1.35;1.00;;;29.10;43.70;;;;;;5114281;27;20166;-88
2022/07/27 09:48:18;;;;;;;1.88;1.00;;;29.00;44.00;;;;;;5132584;27;20176;-89
2022/07/27 09:51:01;;;;;;;1.60;1.05;;;28.80;43.50;;;;;;5114793;27;20192;-88
2022/07/27 09:53:33;;;;;;;1.80;1.00;;;28.80;44.70;;;;;;5132105;27;20196;-88
2022/07/27 09:56:09;;;;;;;1.60;1.10;;;28.60;44.00;;;;;;5112636;27;20170;-88
2022/07/27 09:58:40;;;;;;;1.83;1.20;;;28.60;44.40;;;;;;5112007;27;20165;-88
2022/07/27 10:01:12;;;;;;;1.48;1.10;;;28.50;43.90;;;;;;5113580;27;20324;-88
2022/07/27 10:03:40;;;;;;;2.40;1.23;;;28.50;44.80;;;;;;5113075;28;20236;-88
2022/07/27 10:06:07;;;;;;;1.20;1.10;;;28.40;44.80;;;;;;5131388;27;20176;-88
2022/07/27 10:08:34;;;;;;;1.13;1.03;;;28.30;44.90;;;;;;5112753;28;20165;-88
2022/07/27 10:11:00;;;;;;;1.50;1.10;;;28.30;45.30;;;;;;5111781;27;20238;-89
2022/07/27 10:13:26;;;;;;;1.27;1.00;;;28.30;45.40;;;;;;5132179;28;20248;-89
2022/07/27 10:15:52;;;;;;;1.17;1.00;;;28.40;45.30;;;;;;5131982;28;20272;-89
2022/07/27 10:18:33;;;;;;;1.98;1.20;;;28.50;45.30;;;;;;5112976;28;20217;-89
2022/07/27 10:21:06;;;;;;;1.10;1.10;;;28.70;45.80;;;;;;5131441;28;20165;-89
2022/07/27 10:23:34;;;;;;;1.67;1.15;;;28.80;45.80;;;;;;5112285;28;20279;-89
2022/07/27 10:26:20;;;;;;;1.58;1.20;;;28.60;44.30;;;;;;5130561;28;20309;-89
2022/07/27 10:29:01;;;;;;;2.78;1.05;;;28.60;44.10;;;;;;5095293;28;20192;-88
2022/07/27 10:31:33;;;;;;;1.25;1.15;;;28.80;44.40;;;;;;5113673;28;20710;-89
2022/07/27 10:34:01;;;;;;;1.52;1.05;;;28.90;45.30;;;;;;5112934;28;20276;-88
2022/07/27 10:36:29;;;;;;;0.90;0.90;;;29.00;45.50;;;;;;5131918;28;20178;-89
2022/07/27 10:39:01;;;;;;;1.20;1.00;;;29.00;45.50;;;;;;5112778;28;20189;-89
2022/07/27 10:41:30;;;;;;;2.47;1.60;;;29.00;45.30;;;;;;5112452;28;20169;-88
2022/07/27 10:44:17;;;;;;;1.10;1.00;;;29.00;45.10;;;;;;5113530;28;20212;-89
2022/07/27 10:46:55;;;;;;;1.38;1.27;;;29.00;45.60;;;;;;5112615;28;20170;-89
2022/07/27 10:49:30;;;;;;;1.35;1.17;;;29.00;45.00;;;;;;5113311;28;20204;-88
2022/07/27 10:51:58;;;;;;;1.23;1.13;;;28.90;45.10;;;;;;5133133;27;20180;-89
2022/07/27 10:54:35;;;;;;;1.10;1.00;;;28.80;45.10;;;;;;5115888;27;20428;-89
2022/07/27 10:57:03;;;;;;;1.30;1.20;;;28.80;45.70;;;;;;5117688;27;20521;-89
2022/07/27 10:59:43;;;;;;;2.05;1.10;;;28.80;45.80;;;;;;5116275;27;20177;-89
2022/07/27 11:02:14;;;;;;;1.70;1.10;;;28.80;45.40;;;;;;5116021;27;20177;-89
2022/07/27 11:04:49;;;;;;;2.65;1.30;;;28.80;45.20;;;;;;5116045;27;20205;-88
2022/07/27 11:07:21;;;;;;;1.63;1.02;;;28.80;45.70;;;;;;5117347;27;20181;-88
2022/07/27 11:09:49;;;;;;;2.87;1.40;;;28.90;45.60;;;;;;5116228;27;20169;-88
2022/07/27 11:12:16;;;;;;;2.65;1.30;;;28.80;44.00;;;;;;5116611;27;20638;-88
2022/07/27 11:14:49;;;;;;;1.60;1.30;;;28.90;44.50;;;;;;5134682;27;20170;-88
2022/07/27 11:17:20;;;;;;;1.48;1.17;;;28.90;44.60;;;;;;5117729;27;20169;-89
2022/07/27 11:19:57;;;;;;;1.67;1.20;;;29.00;45.50;;;;;;5134629;27;20352;-88
2022/07/27 11:22:36;;;;;;;2.28;1.20;;;29.00;45.70;;;;;;5114898;27;20622;-89
2022/07/27 11:25:02;;;;;;;1.05;1.00;;;28.90;45.00;;;;;;5116653;27;20568;-88
2022/07/27 11:27:27;;;;;;;1.30;1.20;;;28.90;45.70;;;;;;5115936;27;20204;-88
2022/07/27 11:29:54;;;;;;;2.10;1.20;;;28.90;45.50;;;;;;5116922;27;20489;-89
2022/07/27 11:32:20;;;;;;;1.27;1.17;;;28.80;44.00;;;;;;5115119;27;20599;-89
2022/07/27 11:34:47;;;;;;;3.83;1.63;;;28.70;44.90;;;;;;5133608;27;20169;-89
2022/07/27 11:37:19;;;;;;;3.42;1.50;;;28.60;43.90;;;;;;5116661;27;20173;-89
2022/07/27 11:39:46;;;;;;;1.30;1.20;;;28.40;44.10;;;;;;5118475;27;20272;-89
2022/07/27 11:42:13;;;;;;;1.40;1.30;;;28.30;45.00;;;;;;5134143;27;20569;-89
2022/07/27 11:44:41;;;;;;;1.30;1.10;;;28.30;46.10;;;;;;5115374;27;20652;-89
2022/07/27 11:47:07;;;;;;;2.67;1.10;;;28.30;46.00;;;;;;5115387;27;20238;-89
2022/07/27 11:49:33;;;;;;;1.60;1.20;;;28.30;45.70;;;;;;5116431;27;20173;-89
2022/07/27 11:52:02;;;;;;;1.17;1.07;;;28.30;46.10;;;;;;5116598;27;20445;-89
2022/07/27 11:54:36;;;;;;;2.53;1.40;;;28.30;46.10;;;;;;5134375;27;20262;-89
2022/07/27 11:57:09;;;;;;;1.47;1.10;;;28.30;44.50;;;;;;5115775;27;20181;-89
2022/07/27 11:59:40;;;;;;;1.90;1.13;;;28.30;45.50;;;;;;5115701;27;20359;-89
2022/07/27 12:02:06;;;;;;;1.83;1.10;;;28.40;46.20;;;;;;5114255;27;20775;-89
2022/07/27 12:04:40;;;;;;;1.80;1.20;;;28.30;45.10;;;;;;5114702;27;20205;-89
2022/07/27 12:07:27;;;;;;;2.47;1.40;;;28.30;45.50;;;;;;5115338;27;20407;-89
2022/07/27 12:10:00;;;;;;;1.77;1.10;;;28.30;44.80;;;;;;5132636;27;20268;-89
2022/07/27 12:12:31;;;;;;;1.20;1.10;;;28.30;45.20;;;;;;5114997;27;20180;-89
2022/07/27 12:15:13;;;;;;;1.87;1.10;;;28.30;45.00;;;;;;5112816;27;20173;-89
2022/07/27 12:17:41;;;;;;;1.97;1.30;;;28.30;45.30;;;;;;5115762;27;20249;-89
2022/07/27 12:20:08;;;;;;;1.88;1.10;;;28.40;45.00;;;;;;5115239;27;20180;-89
2022/07/27 12:22:43;;;;;;;1.90;1.40;;;28.30;44.50;;;;;;5114421;27;20170;-88
2022/07/27 12:25:17;;;;;;;1.33;1.10;;;28.30;44.80;;;;;;5112931;27;20274;-89
2022/07/27 12:28:03;;;;;;;3.83;1.17;;;28.30;45.00;;;;;;5132259;27;20166;-89
2022/07/27 12:30:34;;;;;;;1.20;1.10;;;28.20;45.40;;;;;;5115786;27;20260;-89
2022/07/27 12:33:01;;;;;;;1.30;1.20;;;28.30;45.40;;;;;;5115026;27;20205;-89
2022/07/27 12:35:32;;;;;;;1.80;1.07;;;28.30;45.90;;;;;;5114727;27;20247;-89
2022/07/27 12:38:03;;;;;;;1.47;1.00;;;28.20;45.00;;;;;;5131587;27;20169;-89
2022/07/27 12:40:30;;;;;;;1.90;1.27;;;28.10;45.50;;;;;;5114886;27;20173;-89
2022/07/27 12:42:59;;;;;;;1.63;1.10;;;28.20;46.30;;;;;;5113414;27;20358;-89
2022/07/27 12:45:31;;;;;;;2.83;1.30;;;28.20;46.20;;;;;;5114639;27;20341;-89
2022/07/27 12:48:05;;;;;;;2.50;1.20;;;28.10;44.70;;;;;;5114098;27;20236;-89
2022/07/27 12:50:32;;;;;;;1.20;1.10;;;28.00;44.70;;;;;;5113684;27;20447;-89
2022/07/27 12:52:58;;;;;;;1.27;1.10;;;28.00;45.70;;;;;;5113259;27;20197;-89
2022/07/27 12:55:24;;;;;;;2.07;1.20;;;28.00;45.40;;;;;;5114898;27;20169;-89
2022/07/27 12:57:52;;;;;;;1.57;1.10;;;28.00;45.00;;;;;;5115334;27;20176;-89
2022/07/27 13:00:19;;;;;;;1.90;1.13;;;28.00;45.40;;;;;;5133337;27;20168;-89